Strona główna
METAR-TAF:

METAR-TAF

Lotnisko :

Francis S. Gabreski Airport

Westhampton Beach, Nowy Jork, Stany Zjednoczone

Szerokość geograficzna: 40-51-03N, Długość geograficzna: 072-37-14W, wysokość: 20 m

Aktualna obserwacja pogody

Raport powstał 30 minut temu, godzina 05:53 UTC
Wiatr 7 kt od południowy zachód
Temperatura 8°C
Wilgotność 93%
Ciśnienie 1015 hPa
Widzialność: 11.3 km
Mało chmury na wysokości 1800 ft
Mało chmury na wysokości 2800 ft
Zachmurzenie całkowite na wysokości 7000 ft

METAR: KFOK 240553Z AUTO 22007KT 7SM FEW018 FEW028 OVC070 08/07 A2997 RMK AO2 SLP150 T00830067 10083 20078 58015

czas: 01:23 (06:23 UTC)


TAF: brakujący

Obserwacja i prognoza pogody dla ponad 4000 lotnisk (raport METAR i TAF).

Dostępne stacje oznaczono żółtymi i czerwonymi punktami na mapie.

Najedź kursorem aby zobaczyć nazwę stacji.

Kliknij aby zobaczyć obserwacje i prognozy pogody.

Aby zmienić mapę: kliknij na zielony przycisk z czarnym krzyżykiem, aby powiększyć; na zielony przycisk z myślnikiem, aby pomniejszyć; na zielone strzałki, aby przejść do map sąsiednich.


METAR-TAF: